createdAt,value
2024-02-02T00:00:39.035Z,603.00
2024-02-02T00:01:38.880Z,600.00
2024-02-02T00:02:39.109Z,605.00
2024-02-02T00:03:39.036Z,604.00
2024-02-02T00:04:38.994Z,602.00
2024-02-02T00:05:38.987Z,605.00
2024-02-02T00:06:39.051Z,605.00
2024-02-02T00:07:39.070Z,604.00
2024-02-02T00:08:39.078Z,604.00
2024-02-02T00:09:39.186Z,601.00
2024-02-02T00:10:39.105Z,606.00
2024-02-02T00:11:39.216Z,601.00
2024-02-02T00:12:39.181Z,606.00
2024-02-02T00:13:39.216Z,607.00
2024-02-02T00:14:39.229Z,606.00
2024-02-02T00:15:39.326Z,604.00
2024-02-02T00:16:39.354Z,601.00
2024-02-02T00:17:39.397Z,603.00
2024-02-02T00:18:39.474Z,601.00
2024-02-02T00:19:39.479Z,603.00
2024-02-02T00:20:39.408Z,605.00
2024-02-02T00:21:39.488Z,600.00
2024-02-02T00:22:39.494Z,607.00
2024-02-02T00:23:39.518Z,603.00
2024-02-02T00:24:39.622Z,605.00
2024-02-02T00:25:39.554Z,606.00
2024-02-02T00:26:39.633Z,602.00
2024-02-02T00:27:39.689Z,603.00
2024-02-02T00:28:39.667Z,606.00
2024-02-02T00:29:39.662Z,605.00
2024-02-02T00:30:39.784Z,607.00
2024-02-02T00:31:39.715Z,606.00
2024-02-02T00:32:39.751Z,603.00
2024-02-02T00:33:39.825Z,606.00
2024-02-02T00:34:39.901Z,605.00
2024-02-02T00:35:39.890Z,607.00
2024-02-02T00:36:39.818Z,603.00
2024-02-02T00:37:39.854Z,602.00
2024-02-02T00:38:39.885Z,607.00
2024-02-02T00:39:39.928Z,605.00
2024-02-02T00:40:39.954Z,604.00
2024-02-02T00:41:39.955Z,603.00
2024-02-02T00:42:40.022Z,603.00
2024-02-02T00:43:40.045Z,602.00
2024-02-02T00:44:40.052Z,604.00
2024-02-02T00:45:40.059Z,606.00
2024-02-02T00:46:40.086Z,606.00
2024-02-02T00:47:40.200Z,606.00
2024-02-02T00:48:40.261Z,603.00
2024-02-02T00:49:40.251Z,605.00
2024-02-02T00:50:40.193Z,606.00
2024-02-02T00:51:40.293Z,604.00
2024-02-02T00:52:40.282Z,601.00
2024-02-02T00:53:40.265Z,607.00
2024-02-02T00:54:40.318Z,603.00
2024-02-02T00:55:40.334Z,604.00
2024-02-02T00:56:40.378Z,602.00
2024-02-02T00:57:40.447Z,604.00
2024-02-02T00:58:40.406Z,606.00
2024-02-02T00:59:40.420Z,605.00
2024-02-02T01:00:40.544Z,606.00
2024-02-02T01:01:40.470Z,602.00
2024-02-02T01:02:40.539Z,604.00
2024-02-02T01:03:40.587Z,602.00
2024-02-02T01:04:40.599Z,601.00
2024-02-02T01:05:40.597Z,603.00
2024-02-02T01:06:40.755Z,602.00
2024-02-02T01:07:40.638Z,605.00
2024-02-02T01:08:40.636Z,603.00
2024-02-02T01:09:40.688Z,602.00
2024-02-02T01:10:40.706Z,604.00
2024-02-02T01:11:40.769Z,601.00
2024-02-02T01:12:40.751Z,604.00
2024-02-02T01:13:40.819Z,605.00
2024-02-02T01:14:40.843Z,605.00
2024-02-02T01:15:40.873Z,603.00
2024-02-02T01:16:40.863Z,603.00
2024-02-02T01:17:40.915Z,602.00
2024-02-02T01:18:41.089Z,602.00
2024-02-02T01:19:41.018Z,602.00
2024-02-02T01:20:40.974Z,605.00
2024-02-02T01:21:41.053Z,607.00
2024-02-02T01:22:41.065Z,604.00
2024-02-02T01:23:41.095Z,603.00
2024-02-02T01:24:41.130Z,607.00
2024-02-02T01:25:41.182Z,604.00
2024-02-02T01:26:41.209Z,603.00
2024-02-02T01:27:41.228Z,605.00
2024-02-02T01:28:41.233Z,606.00
2024-02-02T01:29:41.281Z,603.00
2024-02-02T01:30:41.314Z,601.00
2024-02-02T01:31:41.354Z,600.00
2024-02-02T01:32:41.424Z,603.00
2024-02-02T01:33:41.489Z,606.00
2024-02-02T01:34:41.533Z,602.00
2024-02-02T01:35:41.412Z,604.00
2024-02-02T01:36:41.478Z,603.00
2024-02-02T01:37:41.496Z,605.00
2024-02-02T01:38:41.470Z,602.00
2024-02-02T01:39:41.509Z,604.00
2024-02-02T01:40:41.553Z,601.00
2024-02-02T01:41:41.581Z,604.00
2024-02-02T01:42:41.632Z,604.00
2024-02-02T01:43:41.613Z,601.00
2024-02-02T01:44:41.638Z,604.00
2024-02-02T01:45:41.667Z,603.00
2024-02-02T01:46:41.692Z,605.00
2024-02-02T01:47:41.761Z,605.00
2024-02-02T01:48:41.829Z,600.00
2024-02-02T01:49:41.837Z,604.00
2024-02-02T01:50:41.815Z,606.00
2024-02-02T01:51:41.821Z,604.00
2024-02-02T01:52:41.853Z,606.00
2024-02-02T01:53:41.893Z,605.00
2024-02-02T01:54:41.905Z,604.00
2024-02-02T01:55:41.918Z,605.00
2024-02-02T01:56:41.987Z,601.00
2024-02-02T01:57:41.998Z,603.00
2024-02-02T01:58:42.002Z,605.00
2024-02-02T01:59:42.029Z,603.00
2024-02-02T02:00:42.140Z,601.00
2024-02-02T02:01:42.129Z,602.00
2024-02-02T02:02:42.165Z,604.00
2024-02-02T02:03:42.323Z,601.00
2024-02-02T02:04:42.269Z,600.00
2024-02-02T02:05:42.316Z,603.00
2024-02-02T02:06:42.413Z,607.00
2024-02-02T02:07:42.320Z,605.00
2024-02-02T02:08:42.356Z,606.00
2024-02-02T02:09:42.384Z,607.00
2024-02-02T02:10:42.448Z,605.00
2024-02-02T02:11:42.422Z,604.00
2024-02-02T02:12:42.482Z,606.00
2024-02-02T02:13:42.525Z,606.00
2024-02-02T02:14:42.654Z,600.00
2024-02-02T02:15:42.634Z,606.00
2024-02-02T02:16:42.601Z,606.00
2024-02-02T02:17:42.692Z,606.00
2024-02-02T02:18:52.061Z,605.00
2024-02-02T02:19:43.752Z,605.00
2024-02-02T02:20:42.707Z,605.00
2024-02-02T02:21:42.717Z,606.00
2024-02-02T02:22:42.722Z,607.00
2024-02-02T02:23:42.718Z,606.00
2024-02-02T02:24:42.756Z,607.00
2024-02-02T02:25:42.725Z,609.00
2024-02-02T02:26:42.703Z,604.00
2024-02-02T02:27:42.723Z,607.00
2024-02-02T02:28:42.747Z,606.00
2024-02-02T02:29:42.748Z,604.00
2024-02-02T02:30:42.730Z,604.00
2024-02-02T02:31:42.778Z,607.00
2024-02-02T02:32:42.773Z,605.00
2024-02-02T02:33:42.834Z,604.00
2024-02-02T02:34:42.949Z,601.00
2024-02-02T02:35:42.734Z,606.00
2024-02-02T02:36:42.754Z,608.00
2024-02-02T02:37:42.799Z,606.00
2024-02-02T02:38:42.808Z,607.00
2024-02-02T02:39:42.881Z,602.00
2024-02-02T02:40:42.942Z,605.00
2024-02-02T02:41:42.940Z,608.00
2024-02-02T02:42:42.981Z,605.00
2024-02-02T02:43:43.026Z,603.00
2024-02-02T02:44:43.059Z,603.00
2024-02-02T02:45:43.092Z,605.00
2024-02-02T02:46:43.137Z,605.00
2024-02-02T02:47:43.263Z,605.00
2024-02-02T02:48:43.376Z,604.00
2024-02-02T02:49:43.306Z,608.00
2024-02-02T02:50:43.289Z,604.00
2024-02-02T02:51:43.319Z,603.00
2024-02-02T02:52:43.361Z,603.00
2024-02-02T02:53:43.419Z,605.00
2024-02-02T02:54:43.435Z,603.00
2024-02-02T02:55:43.464Z,605.00
2024-02-02T02:56:43.522Z,602.00
2024-02-02T02:57:43.561Z,604.00
2024-02-02T02:58:43.600Z,602.00
2024-02-02T02:59:43.698Z,604.00
2024-02-02T03:00:43.676Z,605.00
2024-02-02T03:01:43.711Z,602.00
2024-02-02T03:02:43.764Z,601.00
2024-02-02T03:03:43.891Z,603.00
2024-02-02T03:04:43.825Z,601.00
2024-02-02T03:05:43.887Z,606.00
2024-02-02T03:06:43.917Z,604.00
2024-02-02T03:07:43.959Z,605.00
2024-02-02T03:08:43.996Z,603.00
2024-02-02T03:09:43.985Z,603.00
2024-02-02T03:10:44.050Z,608.00
2024-02-02T03:11:44.079Z,606.00
2024-02-02T03:12:44.127Z,605.00
2024-02-02T03:13:44.144Z,603.00
2024-02-02T03:14:44.184Z,603.00
2024-02-02T03:15:44.197Z,604.00
2024-02-02T03:16:44.232Z,600.00
2024-02-02T03:17:44.333Z,604.00
2024-02-02T03:18:45.730Z,603.00
2024-02-02T03:19:44.405Z,604.00
2024-02-02T03:20:44.403Z,606.00
2024-02-02T03:21:44.435Z,603.00
2024-02-02T03:22:44.481Z,604.00
2024-02-02T03:23:44.519Z,606.00
2024-02-02T03:24:44.519Z,605.00
2024-02-02T03:25:44.594Z,608.00
2024-02-02T03:26:44.630Z,607.00
2024-02-02T03:27:44.665Z,607.00
2024-02-02T03:28:44.727Z,603.00
2024-02-02T03:29:44.767Z,604.00
2024-02-02T03:30:44.828Z,604.00
2024-02-02T03:31:44.818Z,604.00
2024-02-02T03:32:44.941Z,604.00
2024-02-02T03:33:44.940Z,606.00
2024-02-02T03:34:45.101Z,605.00
2024-02-02T03:35:45.009Z,605.00
2024-02-02T03:36:45.027Z,604.00
2024-02-02T03:37:45.111Z,606.00
2024-02-02T03:38:45.113Z,607.00
2024-02-02T03:39:45.147Z,602.00
2024-02-02T03:40:45.218Z,604.00
2024-02-02T03:41:45.483Z,602.00
2024-02-02T03:42:45.261Z,603.00
2024-02-02T03:43:45.314Z,605.00
2024-02-02T03:44:45.333Z,607.00
2024-02-02T03:45:45.392Z,604.00
2024-02-02T03:46:45.411Z,604.00
2024-02-02T03:47:45.440Z,606.00
2024-02-02T03:48:45.524Z,604.00
2024-02-02T03:49:45.564Z,603.00
2024-02-02T03:50:45.573Z,601.00
2024-02-02T03:51:45.596Z,601.00
2024-02-02T03:52:45.646Z,603.00
2024-02-02T03:53:45.705Z,603.00
2024-02-02T03:54:45.741Z,605.00
2024-02-02T03:55:45.789Z,603.00
2024-02-02T03:56:45.816Z,604.00
2024-02-02T03:57:45.849Z,603.00
2024-02-02T03:58:45.891Z,606.00
2024-02-02T03:59:45.975Z,609.00
2024-02-02T04:00:46.072Z,604.00
2024-02-02T04:01:46.038Z,603.00
2024-02-02T04:02:46.098Z,605.00
2024-02-02T04:03:46.207Z,600.00
2024-02-02T04:04:46.184Z,603.00
2024-02-02T04:05:46.247Z,602.00
2024-02-02T04:06:46.244Z,606.00
2024-02-02T04:07:46.333Z,602.00
2024-02-02T04:08:46.369Z,600.00
2024-02-02T04:09:46.377Z,605.00
2024-02-02T04:10:46.420Z,606.00
2024-02-02T04:11:46.443Z,607.00
2024-02-02T04:12:46.520Z,606.00
2024-02-02T04:13:46.575Z,604.00
2024-02-02T04:14:46.617Z,605.00
2024-02-02T04:15:46.649Z,608.00
2024-02-02T04:16:46.682Z,604.00
2024-02-02T04:17:46.748Z,606.00
2024-02-02T04:18:46.867Z,604.00
2024-02-02T04:19:46.854Z,606.00
2024-02-02T04:20:46.848Z,603.00
2024-02-02T04:21:46.905Z,603.00
2024-02-02T04:22:46.937Z,603.00
2024-02-02T04:23:47.004Z,606.00
2024-02-02T04:24:47.055Z,605.00
2024-02-02T04:25:47.094Z,604.00
2024-02-02T04:26:47.102Z,604.00
2024-02-02T04:27:54.309Z,600.00
2024-02-02T04:28:54.309Z,600.00
2024-02-02T04:29:54.332Z,600.00
2024-02-02T04:30:54.351Z,600.00
2024-02-02T04:32:01.592Z,600.00
2024-02-02T04:33:01.729Z,600.00
2024-02-02T04:34:01.667Z,600.00
2024-02-02T04:35:01.590Z,600.00
2024-02-02T04:36:01.642Z,600.00
2024-02-02T04:37:01.578Z,600.00
2024-02-02T04:38:01.563Z,600.00
2024-02-02T04:39:01.600Z,600.00
2024-02-02T04:40:01.604Z,601.00
2024-02-02T04:41:01.557Z,601.00
2024-02-02T04:42:01.591Z,602.00
2024-02-02T04:43:01.655Z,605.00
2024-02-02T04:44:01.578Z,604.00
2024-02-02T04:45:01.671Z,605.00
2024-02-02T04:46:01.587Z,600.00
2024-02-02T04:47:01.591Z,601.00
2024-02-02T04:48:01.660Z,603.00
2024-02-02T04:49:01.718Z,602.00
2024-02-02T04:50:01.589Z,605.00
2024-02-02T04:51:01.593Z,603.00
2024-02-02T04:52:01.608Z,610.00
2024-02-02T04:53:01.624Z,606.00
2024-02-02T04:54:01.617Z,605.00
2024-02-02T04:55:01.579Z,602.00
2024-02-02T04:56:01.594Z,604.00
2024-02-02T04:57:01.604Z,603.00
2024-02-02T04:58:01.636Z,599.00
2024-02-02T04:59:01.618Z,604.00
2024-02-02T05:00:01.653Z,605.00
2024-02-02T05:01:01.621Z,603.00
2024-02-02T05:02:04.978Z,605.00
2024-02-02T05:03:01.639Z,605.00
2024-02-02T05:04:01.712Z,605.00
2024-02-02T05:05:01.606Z,605.00
2024-02-02T05:06:01.678Z,605.00
2024-02-02T05:07:01.606Z,606.00
2024-02-02T05:08:01.654Z,604.00
2024-02-02T05:09:01.635Z,602.00
2024-02-02T05:10:01.723Z,607.00
2024-02-02T05:11:01.592Z,606.00
2024-02-02T05:12:01.633Z,605.00
2024-02-02T05:13:01.677Z,607.00
2024-02-02T05:14:01.646Z,605.00
2024-02-02T05:15:01.701Z,605.00
2024-02-02T05:16:01.614Z,605.00
2024-02-02T05:17:01.615Z,604.00
2024-02-02T05:18:01.722Z,604.00
2024-02-02T05:19:01.904Z,600.00
2024-02-02T05:20:01.644Z,603.00
2024-02-02T05:21:01.693Z,602.00
2024-02-02T05:22:01.679Z,603.00
2024-02-02T05:23:01.723Z,606.00
2024-02-02T05:24:10.119Z,604.00
2024-02-02T05:25:02.839Z,604.00
2024-02-02T05:26:01.792Z,604.00
2024-02-02T05:27:01.775Z,605.00
2024-02-02T05:28:01.824Z,605.00
2024-02-02T05:29:01.780Z,606.00
2024-02-02T05:30:01.876Z,605.00
2024-02-02T05:31:01.781Z,602.00
2024-02-02T05:32:01.752Z,608.00
2024-02-02T05:33:02.328Z,602.00
2024-02-02T05:34:01.947Z,603.00
2024-02-02T05:35:02.009Z,603.00
2024-02-02T05:36:01.849Z,605.00
2024-02-02T05:37:01.818Z,602.00
2024-02-02T05:38:01.803Z,605.00
2024-02-02T05:39:01.786Z,605.00
2024-02-02T05:40:01.784Z,601.00
2024-02-02T05:41:01.858Z,604.00
2024-02-02T05:42:01.915Z,608.00
2024-02-02T05:43:01.979Z,605.00
2024-02-02T05:44:01.939Z,605.00
2024-02-02T05:45:02.012Z,606.00
2024-02-02T05:46:02.006Z,602.00
2024-02-02T05:47:02.038Z,604.00
2024-02-02T05:48:02.133Z,606.00
2024-02-02T05:49:02.197Z,602.00
2024-02-02T05:50:02.188Z,607.00
2024-02-02T05:51:02.281Z,604.00
2024-02-02T05:52:02.245Z,603.00
2024-02-02T05:53:02.239Z,605.00
2024-02-02T05:54:02.287Z,604.00
2024-02-02T05:55:02.340Z,605.00
2024-02-02T05:56:02.371Z,604.00
2024-02-02T05:57:02.432Z,604.00
2024-02-02T05:58:02.406Z,604.00
2024-02-02T05:59:02.435Z,602.00
2024-02-02T06:00:02.668Z,603.00
2024-02-02T06:01:02.565Z,603.00
2024-02-02T06:02:02.566Z,603.00
2024-02-02T06:03:02.615Z,600.00
2024-02-02T06:04:02.706Z,603.00
2024-02-02T06:05:02.647Z,604.00
2024-02-02T06:06:02.727Z,604.00
2024-02-02T06:07:02.856Z,605.00
2024-02-02T06:08:02.785Z,605.00
2024-02-02T06:09:02.767Z,603.00
2024-02-02T06:10:02.778Z,600.00
2024-02-02T06:11:02.819Z,604.00
2024-02-02T06:12:02.861Z,607.00
2024-02-02T06:13:02.903Z,604.00
2024-02-02T06:14:02.858Z,602.00
2024-02-02T06:15:02.963Z,605.00
2024-02-02T06:16:02.993Z,606.00
2024-02-02T06:17:02.988Z,603.00
2024-02-02T06:18:03.104Z,605.00
2024-02-02T06:19:03.132Z,603.00
2024-02-02T06:20:03.190Z,604.00
2024-02-02T06:21:03.069Z,608.00
2024-02-02T06:22:03.078Z,607.00
2024-02-02T06:23:04.281Z,604.00
2024-02-02T06:24:03.156Z,606.00
2024-02-02T06:25:03.198Z,604.00
2024-02-02T06:26:03.196Z,601.00
2024-02-02T06:27:03.259Z,605.00
2024-02-02T06:28:03.261Z,609.00
2024-02-02T06:29:03.270Z,606.00
2024-02-02T06:30:03.402Z,607.00
2024-02-02T06:31:03.305Z,603.00
2024-02-02T06:32:03.336Z,606.00
2024-02-02T06:33:03.462Z,603.00
2024-02-02T06:34:03.436Z,607.00
2024-02-02T06:35:03.415Z,604.00
2024-02-02T06:36:03.493Z,605.00
2024-02-02T06:37:03.464Z,604.00
2024-02-02T06:38:03.474Z,604.00
2024-02-02T06:39:03.519Z,603.00
2024-02-02T06:40:03.536Z,602.00
2024-02-02T06:41:03.552Z,604.00
2024-02-02T06:42:03.628Z,607.00
2024-02-02T06:43:03.600Z,602.00
2024-02-02T06:44:03.642Z,607.00
2024-02-02T06:45:03.735Z,602.00
2024-02-02T06:46:03.676Z,601.00
2024-02-02T06:47:03.701Z,602.00
2024-02-02T06:48:03.823Z,603.00
2024-02-02T06:49:03.738Z,611.00
2024-02-02T06:50:03.739Z,627.00
2024-02-02T06:51:05.546Z,650.00
2024-02-02T06:52:03.845Z,651.00
2024-02-02T06:53:03.900Z,652.00
2024-02-02T06:54:04.034Z,654.00
2024-02-02T06:55:04.069Z,657.00
2024-02-02T06:56:04.188Z,663.00
2024-02-02T06:57:04.185Z,664.00
2024-02-02T06:58:04.215Z,669.00
2024-02-02T06:59:04.273Z,685.00
2024-02-02T07:00:04.459Z,698.00
2024-02-02T07:01:04.507Z,698.00
2024-02-02T07:02:04.471Z,722.00
2024-02-02T07:03:04.720Z,740.00
2024-02-02T07:04:04.665Z,761.00
2024-02-02T07:05:04.579Z,785.00
2024-02-02T07:06:04.687Z,808.00
2024-02-02T07:07:04.772Z,842.00
2024-02-02T07:08:04.707Z,869.00
2024-02-02T07:09:04.792Z,911.00
2024-02-02T07:10:04.748Z,937.00
2024-02-02T07:11:05.718Z,962.00
2024-02-02T07:12:04.930Z,993.00
2024-02-02T07:13:04.883Z,1012.00
2024-02-02T07:14:04.848Z,1030.00
2024-02-02T07:15:04.974Z,1050.00
2024-02-02T07:16:04.966Z,1072.00
2024-02-02T07:17:04.925Z,1087.00
2024-02-02T07:18:05.018Z,1103.00
2024-02-02T07:19:05.096Z,1109.00
2024-02-02T07:20:05.029Z,1124.00
2024-02-02T07:21:05.018Z,1132.00
2024-02-02T07:22:05.014Z,1147.00
2024-02-02T07:23:05.078Z,1159.00
2024-02-02T07:24:05.138Z,1170.00
2024-02-02T07:25:05.034Z,1176.00
2024-02-02T07:26:05.100Z,1187.00
2024-02-02T07:27:05.810Z,1194.00
2024-02-02T07:28:05.139Z,1207.00
2024-02-02T07:29:05.126Z,1225.00
2024-02-02T07:30:05.164Z,1231.00
2024-02-02T07:31:05.180Z,1247.00
2024-02-02T07:32:05.212Z,1258.00
2024-02-02T07:33:05.331Z,1269.00
2024-02-02T07:34:05.345Z,1265.00
2024-02-02T07:35:05.431Z,1266.00
2024-02-02T07:36:05.325Z,1272.00
2024-02-02T07:37:05.312Z,1279.00
2024-02-02T07:38:05.329Z,1280.00
2024-02-02T07:39:05.406Z,1288.00
2024-02-02T07:40:05.387Z,1298.00
2024-02-02T07:41:05.387Z,1303.00
2024-02-02T07:42:05.492Z,1306.00
2024-02-02T07:43:05.481Z,1315.00
2024-02-02T07:44:05.467Z,1322.00
2024-02-02T07:45:05.534Z,1327.00
2024-02-02T07:46:09.105Z,1319.00
2024-02-02T07:47:06.528Z,1319.00
2024-02-02T07:48:05.648Z,1319.00
2024-02-02T07:49:05.732Z,1320.00
2024-02-02T07:50:05.514Z,1317.00
2024-02-02T07:51:05.540Z,1312.00
2024-02-02T07:52:05.529Z,1314.00
2024-02-02T07:53:05.516Z,1309.00
2024-02-02T07:54:05.544Z,1300.00
2024-02-02T07:55:05.540Z,1289.00
2024-02-02T07:56:05.516Z,1269.00
2024-02-02T07:57:05.560Z,1253.00
2024-02-02T07:58:05.507Z,1222.00
2024-02-02T07:59:06.233Z,1207.00
2024-02-02T08:00:05.561Z,1161.00
2024-02-02T08:01:05.565Z,1137.00
2024-02-02T08:02:05.546Z,1106.00
2024-02-02T08:03:05.657Z,1068.00
2024-02-02T08:04:05.775Z,1045.00
2024-02-02T08:05:05.558Z,1023.00
2024-02-02T08:06:06.722Z,989.00
2024-02-02T08:07:05.750Z,967.00
2024-02-02T08:08:05.705Z,943.00
2024-02-02T08:09:05.815Z,921.00
2024-02-02T08:10:05.829Z,894.00
2024-02-02T08:11:05.956Z,879.00
2024-02-02T08:12:06.003Z,851.00
2024-02-02T08:13:06.068Z,832.00
2024-02-02T08:14:06.074Z,825.00
2024-02-02T08:15:06.196Z,806.00
2024-02-02T08:16:06.249Z,794.00
2024-02-02T08:17:06.290Z,781.00
2024-02-02T08:18:06.515Z,768.00
2024-02-02T08:19:06.509Z,755.00
2024-02-02T08:20:06.529Z,746.00
2024-02-02T08:21:06.599Z,727.00
2024-02-02T08:22:06.636Z,720.00
2024-02-02T08:23:06.730Z,714.00
2024-02-02T08:24:06.817Z,707.00
2024-02-02T08:25:06.844Z,691.00
2024-02-02T08:26:06.917Z,681.00
2024-02-02T08:27:07.000Z,682.00
2024-02-02T08:28:07.044Z,667.00
2024-02-02T08:29:07.119Z,667.00
2024-02-02T08:30:07.223Z,662.00
2024-02-02T08:31:07.259Z,662.00
2024-02-02T08:32:07.318Z,658.00
2024-02-02T08:33:07.499Z,653.00
2024-02-02T08:34:07.475Z,651.00
2024-02-02T08:35:07.488Z,648.00
2024-02-02T08:36:07.592Z,647.00
2024-02-02T08:37:07.627Z,647.00
2024-02-02T08:38:07.682Z,645.00
2024-02-02T08:39:07.713Z,641.00
2024-02-02T08:40:07.755Z,639.00
2024-02-02T08:41:07.908Z,637.00
2024-02-02T08:42:08.341Z,634.00
2024-02-02T08:43:07.973Z,627.00
2024-02-02T08:44:08.021Z,628.00
2024-02-02T08:45:08.083Z,624.00
2024-02-02T08:46:08.112Z,628.00
2024-02-02T08:47:08.158Z,628.00
2024-02-02T08:48:08.254Z,632.00
2024-02-02T08:49:08.321Z,636.00
2024-02-02T08:50:08.318Z,639.00
2024-02-02T08:51:08.332Z,642.00
2024-02-02T08:52:08.388Z,656.00
2024-02-02T08:53:08.438Z,714.00
2024-02-02T08:54:08.573Z,745.00
2024-02-02T08:55:08.533Z,714.00
2024-02-02T08:56:08.533Z,711.00
2024-02-02T08:57:08.635Z,707.00
2024-02-02T08:58:08.634Z,712.00
2024-02-02T08:59:08.662Z,715.00
2024-02-02T09:00:08.706Z,722.00
2024-02-02T09:01:08.739Z,728.00
2024-02-02T09:02:08.749Z,737.00
2024-02-02T09:03:09.029Z,746.00
2024-02-02T09:04:08.808Z,764.00
2024-02-02T09:05:08.774Z,789.00
2024-02-02T09:06:08.888Z,843.00
2024-02-02T09:07:08.906Z,892.00
2024-02-02T09:08:08.957Z,941.00
2024-02-02T09:09:09.030Z,969.00
2024-02-02T09:10:09.087Z,982.00
2024-02-02T09:11:09.082Z,991.00
2024-02-02T09:12:09.190Z,999.00
2024-02-02T09:13:09.178Z,1000.00
2024-02-02T09:14:09.342Z,1021.00
2024-02-02T09:15:09.360Z,1032.00
2024-02-02T09:16:09.400Z,1040.00
2024-02-02T09:17:09.459Z,1057.00
2024-02-02T09:18:09.606Z,1063.00
2024-02-02T09:19:09.595Z,1075.00
2024-02-02T09:20:09.712Z,1096.00
2024-02-02T09:21:09.628Z,1103.00
2024-02-02T09:22:09.594Z,1137.00
2024-02-02T09:23:09.659Z,1140.00
2024-02-02T09:24:09.724Z,1156.00
2024-02-02T09:25:09.746Z,1176.00
2024-02-02T09:26:09.790Z,1188.00
2024-02-02T09:27:09.810Z,1193.00
2024-02-02T09:28:09.790Z,1215.00
2024-02-02T09:29:09.788Z,1221.00
2024-02-02T09:30:09.862Z,1230.00
2024-02-02T09:31:09.902Z,1233.00
2024-02-02T09:32:09.879Z,1260.00
2024-02-02T09:33:10.039Z,1267.00
2024-02-02T09:34:10.138Z,1280.00
2024-02-02T09:35:09.913Z,1296.00
2024-02-02T09:36:09.960Z,1305.00
2024-02-02T09:37:09.982Z,1329.00
2024-02-02T09:38:10.036Z,1333.00
2024-02-02T09:39:10.141Z,1336.00
2024-02-02T09:40:10.044Z,1334.00
2024-02-02T09:41:10.080Z,1335.00
2024-02-02T09:42:10.135Z,1326.00
2024-02-02T09:43:10.157Z,1293.00
2024-02-02T09:44:10.215Z,1286.00
2024-02-02T09:45:10.273Z,1263.00
2024-02-02T09:46:10.269Z,1206.00
2024-02-02T09:47:10.440Z,1123.00
2024-02-02T09:48:10.602Z,1041.00
2024-02-02T09:49:10.577Z,989.00
2024-02-02T09:50:10.616Z,950.00
2024-02-02T09:51:10.614Z,921.00
2024-02-02T09:52:10.570Z,904.00
2024-02-02T09:53:10.607Z,887.00
2024-02-02T09:54:10.698Z,888.00
2024-02-02T09:55:10.763Z,860.00
2024-02-02T09:56:10.810Z,831.00
2024-02-02T09:57:10.899Z,794.00
2024-02-02T09:58:10.914Z,800.00
2024-02-02T09:59:10.985Z,810.00
2024-02-02T10:00:11.056Z,802.00
2024-02-02T10:01:11.056Z,800.00
2024-02-02T10:02:11.110Z,802.00
2024-02-02T10:03:11.182Z,796.00
2024-02-02T10:04:12.761Z,793.00
2024-02-02T10:05:11.956Z,797.00
2024-02-02T10:06:11.326Z,803.00
2024-02-02T10:07:11.311Z,817.00
2024-02-02T10:08:11.287Z,831.00
2024-02-02T10:09:11.343Z,861.00
2024-02-02T10:10:11.338Z,885.00
2024-02-02T10:11:11.433Z,901.00
2024-02-02T10:12:11.502Z,915.00
2024-02-02T10:13:11.792Z,925.00
2024-02-02T10:14:11.596Z,957.00
2024-02-02T10:15:11.683Z,970.00
2024-02-02T10:16:11.859Z,1012.00
2024-02-02T10:17:11.725Z,1025.00
2024-02-02T10:18:11.945Z,1030.00
2024-02-02T10:19:11.949Z,1025.00
2024-02-02T10:20:11.905Z,1012.00
2024-02-02T10:21:11.982Z,1009.00
2024-02-02T10:22:11.993Z,985.00
2024-02-02T10:23:12.013Z,945.00
2024-02-02T10:24:17.959Z,924.00
2024-02-02T10:25:13.030Z,913.00
2024-02-02T10:26:12.049Z,913.00
2024-02-02T10:27:12.003Z,913.00
2024-02-02T10:28:12.047Z,910.00
2024-02-02T10:29:11.996Z,919.00
2024-02-02T10:30:12.083Z,928.00
2024-02-02T10:31:12.035Z,960.00
2024-02-02T10:32:12.004Z,971.00
2024-02-02T10:33:12.147Z,966.00
2024-02-02T10:34:12.124Z,980.00
2024-02-02T10:35:12.010Z,1003.00
2024-02-02T10:36:12.017Z,1013.00
2024-02-02T10:37:12.041Z,1015.00
2024-02-02T10:38:12.089Z,1015.00
2024-02-02T10:39:13.689Z,1028.00
2024-02-02T10:40:12.223Z,1041.00
2024-02-02T10:41:12.264Z,1044.00
2024-02-02T10:42:12.432Z,1052.00
2024-02-02T10:43:12.383Z,1042.00
2024-02-02T10:44:12.386Z,1048.00
2024-02-02T10:45:12.467Z,1026.00
2024-02-02T10:46:12.497Z,977.00
2024-02-02T10:47:12.501Z,925.00
2024-02-02T10:49:12.689Z,784.00
2024-02-02T10:50:12.686Z,733.00
2024-02-02T10:51:12.692Z,687.00
2024-02-02T10:52:12.652Z,657.00
2024-02-02T10:53:12.717Z,642.00
2024-02-02T10:54:12.710Z,632.00
2024-02-02T10:55:12.701Z,627.00
2024-02-02T10:56:12.786Z,624.00
2024-02-02T10:57:12.892Z,624.00
2024-02-02T10:58:12.914Z,625.00
2024-02-02T10:59:12.938Z,627.00
2024-02-02T11:00:13.027Z,630.00
2024-02-02T11:01:13.155Z,642.00
2024-02-02T11:02:12.985Z,649.00
2024-02-02T11:03:13.089Z,658.00
2024-02-02T11:04:13.248Z,665.00
2024-02-02T11:05:13.058Z,678.00
2024-02-02T11:06:13.190Z,695.00
2024-02-02T11:07:13.259Z,718.00
2024-02-02T11:08:13.225Z,736.00
2024-02-02T11:09:13.311Z,736.00
2024-02-02T11:10:13.337Z,751.00
2024-02-02T11:11:13.461Z,762.00
2024-02-02T11:12:13.514Z,760.00
2024-02-02T11:13:13.581Z,771.00
2024-02-02T11:14:13.652Z,777.00
2024-02-02T11:15:13.749Z,789.00
2024-02-02T11:16:13.779Z,792.00
2024-02-02T11:17:13.845Z,800.00
2024-02-02T11:18:14.017Z,805.00
2024-02-02T11:19:14.019Z,798.00
2024-02-02T11:20:14.016Z,805.00
2024-02-02T11:21:14.120Z,815.00
2024-02-02T11:22:14.164Z,820.00
2024-02-02T11:23:14.341Z,814.00
2024-02-02T11:24:14.316Z,811.00
2024-02-02T11:25:14.461Z,812.00
2024-02-02T11:26:14.368Z,815.00
2024-02-02T11:27:14.413Z,822.00
2024-02-02T11:28:14.496Z,842.00
2024-02-02T11:29:14.546Z,829.00
2024-02-02T11:30:14.670Z,842.00
2024-02-02T11:31:14.669Z,842.00
2024-02-02T11:32:14.709Z,832.00
2024-02-02T11:33:14.926Z,835.00
2024-02-02T11:34:14.968Z,850.00
2024-02-02T11:35:14.936Z,827.00
2024-02-02T11:36:15.050Z,837.00
2024-02-02T11:37:15.048Z,827.00
2024-02-02T11:38:15.138Z,830.00
2024-02-02T11:39:15.177Z,831.00
2024-02-02T11:40:15.189Z,834.00
2024-02-02T11:41:15.196Z,845.00
2024-02-02T11:42:15.237Z,862.00
2024-02-02T11:43:15.338Z,888.00
2024-02-02T11:44:15.368Z,863.00
2024-02-02T11:45:15.444Z,848.00
2024-02-02T11:46:15.482Z,842.00
2024-02-02T11:47:15.560Z,816.00
2024-02-02T11:48:15.659Z,776.00
2024-02-02T11:49:15.738Z,717.00
2024-02-02T11:50:15.638Z,671.00
2024-02-02T11:51:15.789Z,651.00
2024-02-02T11:52:15.767Z,638.00
2024-02-02T11:53:15.925Z,627.00
2024-02-02T11:54:15.878Z,619.00
2024-02-02T11:55:15.902Z,613.00
2024-02-02T11:56:15.903Z,608.00
2024-02-02T11:57:15.937Z,602.00
2024-02-02T11:58:15.991Z,603.00
2024-02-02T11:59:15.980Z,601.00
2024-02-02T12:00:16.052Z,601.00
2024-02-02T12:01:16.069Z,602.00
2024-02-02T12:02:16.049Z,603.00
2024-02-02T12:03:16.108Z,603.00
2024-02-02T12:04:16.043Z,603.00
2024-02-02T12:05:16.145Z,605.00
2024-02-02T12:06:16.237Z,606.00
2024-02-02T12:07:16.412Z,607.00
2024-02-02T12:08:16.244Z,608.00
2024-02-02T12:09:16.703Z,604.00
2024-02-02T12:10:16.368Z,605.00
2024-02-02T12:11:23.244Z,607.00
2024-02-02T12:12:17.421Z,607.00
2024-02-02T12:13:16.444Z,607.00
2024-02-02T12:14:16.368Z,604.00
2024-02-02T12:15:16.370Z,602.00
2024-02-02T12:16:16.376Z,603.00
2024-02-02T12:17:16.409Z,610.00
2024-02-02T12:18:16.626Z,609.00
2024-02-02T12:19:16.474Z,613.00
2024-02-02T12:20:17.713Z,620.00
2024-02-02T12:21:16.782Z,626.00
2024-02-02T12:22:16.616Z,633.00
2024-02-02T12:23:16.694Z,634.00
2024-02-02T12:24:16.760Z,630.00
2024-02-02T12:25:16.757Z,646.00
2024-02-02T12:26:16.827Z,653.00
2024-02-02T12:27:16.917Z,650.00